Time;durP1;ratioP1;P1;durP2;ratioP2;P2;SDS_P1;SDS_P2;PMS_P1;PMS_P2;Temp;Humidity;BMP_temperature;BMP_pressure;BME280_temperature;BME280_humidity;BME280_pressure;Samples;Min_cycle;Max_cycle;Signal;HPM_P1;HPM_P2
2022/08/26 00:01:54;;;;;;;16.93;10.63;;;;;;;19.59;100.00;101580.97;5033771;28;20460;-51
2022/08/26 00:04:23;;;;;;;16.47;11.33;;;;;;;19.58;100.00;101568.50;5033610;28;20435;-54
2022/08/26 00:06:51;;;;;;;13.33;11.57;;;;;;;19.55;100.00;101574.38;5033630;28;20503;-47
2022/08/26 00:09:20;;;;;;;13.23;11.33;;;;;;;19.53;100.00;101573.81;5033173;28;20578;-50
2022/08/26 00:11:48;;;;;;;15.00;13.40;;;;;;;19.53;100.00;101568.41;5033235;28;20672;-51
2022/08/26 00:14:17;;;;;;;16.30;11.93;;;;;;;19.50;100.00;101568.88;5033509;28;20794;-48
2022/08/26 00:16:45;;;;;;;14.07;12.27;;;;;;;19.50;100.00;101569.69;5033545;28;20451;-48
2022/08/26 00:19:17;;;;;;;12.70;11.37;;;;;;;19.49;100.00;101576.16;5033098;28;20490;-51
2022/08/26 00:21:47;;;;;;;13.33;12.27;;;;;;;19.49;100.00;101572.63;5033558;28;20452;-51
2022/08/26 00:24:17;;;;;;;14.67;11.20;;;;;;;19.49;100.00;101572.63;5033501;28;20896;-54
2022/08/26 00:26:45;;;;;;;12.80;11.67;;;;;;;19.45;100.00;101576.84;5033454;28;20945;-50
2022/08/26 00:29:13;;;;;;;14.27;12.73;;;;;;;19.47;100.00;101563.94;5033117;28;20467;-50
2022/08/26 00:31:41;;;;;;;20.23;12.50;;;;;;;19.45;100.00;101560.63;5033098;28;20985;-52
2022/08/26 00:34:12;;;;;;;17.70;12.33;;;;;;;19.45;100.00;101569.56;5033033;28;20937;-54
2022/08/26 00:36:42;;;;;;;17.27;12.83;;;;;;;19.46;100.00;101563.09;5033130;28;20957;-51
2022/08/26 00:39:09;;;;;;;17.17;12.10;;;;;;;19.44;100.00;101567.09;5032731;28;20470;-53
2022/08/26 00:41:39;;;;;;;13.60;11.90;;;;;;;19.43;100.00;101560.03;5033024;28;20458;-49
2022/08/26 00:44:07;;;;;;;13.87;11.50;;;;;;;19.41;100.00;101554.03;5032859;28;20440;-49
2022/08/26 00:46:39;;;;;;;17.00;12.17;;;;;;;19.41;100.00;101554.03;5032799;28;20431;-51
2022/08/26 00:49:16;;;;;;;12.97;11.73;;;;;;;19.42;100.00;101563.78;5032740;28;20463;-48
2022/08/26 00:51:50;;;;;;;15.50;11.93;;;;;;;19.41;100.00;101565.69;5033003;28;20448;-54
2022/08/26 00:54:20;;;;;;;12.97;11.77;;;;;;;19.39;100.00;101562.38;5032927;28;20450;-54
2022/08/26 00:56:54;;;;;;;20.80;12.97;;;;;;;19.39;100.00;101551.56;5032889;28;20422;-49
2022/08/26 00:59:23;;;;;;;12.87;11.53;;;;;;;19.38;100.00;101559.88;5032519;28;20899;-50
2022/08/26 01:01:51;;;;;;;12.83;11.40;;;;;;;19.38;100.00;101557.19;5032557;28;20478;-52
2022/08/26 01:04:23;;;;;;;17.00;11.67;;;;;;;19.35;100.00;101553.88;5032445;28;20975;-48
2022/08/26 01:06:54;;;;;;;13.83;12.20;;;;;;;19.35;100.00;101558.47;5032821;28;20864;-46
2022/08/26 01:09:22;;;;;;;14.73;12.80;;;;;;;19.34;100.00;101559.53;5032214;28;20460;-51
2022/08/26 01:11:55;;;;;;;16.30;12.17;;;;;;;19.33;100.00;101557.88;5032538;28;20965;-49
2022/08/26 01:14:26;;;;;;;12.60;11.20;;;;;;;19.32;100.00;101556.25;5032443;28;20445;-51
2022/08/26 01:16:54;;;;;;;13.07;11.13;;;;;;;19.33;100.00;101563.28;5032699;28;20438;-49
2022/08/26 01:19:37;;;;;;;16.83;11.50;;;;;;;19.32;100.00;101567.88;5031971;28;20468;-50
2022/08/26 01:22:12;;;;;;;14.53;12.77;;;;;;;19.30;100.00;101564.56;5031965;28;20447;-49
2022/08/26 01:24:41;;;;;;;16.40;12.60;;;;;;;19.30;100.00;101556.47;5031547;28;20450;-51
2022/08/26 01:27:12;;;;;;;15.23;11.90;;;;;;;19.31;100.00;101565.41;5032158;28;20813;-49
2022/08/26 01:29:44;;;;;;;12.50;11.30;;;;;;;19.32;100.00;101567.06;5031884;28;20471;-51
2022/08/26 01:32:18;;;;;;;15.03;12.10;;;;;;;19.32;100.00;101561.66;5031890;28;20813;-51
2022/08/26 01:34:48;;;;;;;14.13;12.13;;;;;;;19.31;100.00;101560.81;5032406;28;20787;-53
2022/08/26 01:37:19;;;;;;;13.90;12.70;;;;;;;19.32;100.00;101561.66;5032273;28;20545;-50
2022/08/26 01:39:51;;;;;;;13.47;12.07;;;;;;;19.32;100.00;101559.75;5031694;28;20472;-52
2022/08/26 01:42:22;;;;;;;14.20;12.70;;;;;;;19.34;100.00;101568.47;5031754;28;20448;-49
2022/08/26 01:44:53;;;;;;;23.70;14.60;;;;;;;19.33;100.00;101564.13;5032137;28;20436;-49
2022/08/26 01:47:25;;;;;;;21.87;13.63;;;;;;;19.34;100.00;101560.38;5032070;28;20435;-49
2022/08/26 01:49:55;;;;;;;15.20;13.67;;;;;;;19.34;100.00;101556.81;5031618;28;20502;-50
2022/08/26 01:52:25;;;;;;;15.90;14.30;;;;;;;19.33;100.00;101552.47;5031422;28;20443;-50
2022/08/26 01:54:58;;;;;;;19.37;15.03;;;;;;;19.31;100.00;101549.19;5032192;28;20431;-53
2022/08/26 01:57:27;;;;;;;15.57;12.80;;;;;;;19.29;100.00;101546.69;5031793;28;20432;-50
2022/08/26 01:59:58;;;;;;;15.33;13.33;;;;;;;19.28;100.00;101558.59;5031447;28;20473;-54
2022/08/26 02:02:26;;;;;;;18.27;13.93;;;;;;;19.27;100.00;101554.22;5031351;28;20985;-48
2022/08/26 02:04:59;;;;;;;13.50;12.17;;;;;;;19.26;100.00;101555.28;5031961;28;20435;-54
2022/08/26 02:07:28;;;;;;;14.73;13.30;;;;;;;19.26;100.00;101554.47;5031817;28;20427;-53
2022/08/26 02:09:57;;;;;;;15.50;13.80;;;;;;;19.25;100.00;101547.41;5031237;28;20539;-49
2022/08/26 02:12:26;;;;;;;18.37;13.27;;;;;;;19.24;100.00;101549.28;5031574;28;20547;-49
2022/08/26 02:14:57;;;;;;;15.70;14.13;;;;;;;19.24;100.00;101546.59;5031772;28;20802;-53
2022/08/26 02:17:28;;;;;;;17.57;15.70;;;;;;;19.24;100.00;101538.47;5031721;28;20435;-52
2022/08/26 02:19:57;;;;;;;16.97;12.90;;;;;;;19.22;100.00;101543.31;5031295;28;20463;-51
2022/08/26 02:22:25;;;;;;;18.50;13.93;;;;;;;19.21;100.00;101546.22;5031264;28;20440;-52
2022/08/26 02:24:56;;;;;;;16.50;14.60;;;;;;;19.19;100.00;101546.47;5031721;28;20435;-52
2022/08/26 02:27:27;;;;;;;22.97;14.20;;;;;;;19.17;100.00;101542.38;5031738;28;20432;-52
2022/08/26 02:30:06;;;;;;;18.23;16.40;;;;;;;19.16;100.00;101544.22;5031074;28;20486;-47
2022/08/26 02:32:34;;;;;;;17.27;14.40;;;;;;;19.15;100.00;101539.88;5031258;28;20452;-47
2022/08/26 02:35:01;;;;;;;17.70;14.30;;;;;;;19.13;100.00;101539.28;5032674;28;20435;-49
2022/08/26 02:37:31;;;;;;;19.40;14.47;;;;;;;19.12;100.00;101537.63;5035539;28;20473;-46
2022/08/26 02:40:00;;;;;;;16.23;14.63;;;;;;;19.12;100.00;101537.63;5035025;28;20491;-49
2022/08/26 02:42:31;;;;;;;18.30;14.73;;;;;;;19.12;100.00;101539.50;5035221;28;20454;-52
2022/08/26 02:44:59;;;;;;;17.27;15.57;;;;;;;19.12;100.00;101540.34;5035317;28;20446;-46
2022/08/26 02:47:27;;;;;;;16.13;14.73;;;;;;;19.11;100.00;101532.47;5035215;28;20921;-47
2022/08/26 02:49:55;;;;;;;15.17;13.57;;;;;;;19.10;100.00;101533.53;5034650;28;21015;-50
2022/08/26 02:52:24;;;;;;;19.20;14.67;;;;;;;19.11;100.00;101537.88;5034814;28;20830;-49
2022/08/26 02:54:52;;;;;;;16.20;14.70;;;;;;;19.10;100.00;101533.53;5035133;28;20432;-46
2022/08/26 02:57:19;;;;;;;19.80;15.43;;;;;;;19.09;100.00;101535.41;5035168;28;20481;-53
2022/08/26 02:59:50;;;;;;;20.43;13.13;;;;;;;19.09;100.00;101530.00;5034399;28;20517;-49
2022/08/26 03:02:17;;;;;;;20.20;16.30;;;;;;;19.08;100.00;101532.94;5034552;28;20459;-47
2022/08/26 03:04:45;;;;;;;17.10;14.70;;;;;;;19.08;100.00;101532.94;5034891;28;20813;-50
2022/08/26 03:07:28;;;;;;;16.40;14.90;;;;;;;19.06;100.00;101532.34;5034889;28;20432;-47
2022/08/26 03:09:56;;;;;;;18.27;16.47;;;;;;;19.05;100.00;101522.59;5034199;28;20474;-46
2022/08/26 03:12:24;;;;;;;15.53;13.93;;;;;;;19.04;100.00;101523.66;5034259;28;20456;-48
2022/08/26 03:14:53;;;;;;;18.03;15.80;;;;;;;19.03;100.00;101524.69;5034723;28;20530;-47
2022/08/26 03:17:21;;;;;;;15.50;13.90;;;;;;;19.02;100.00;101526.59;5035022;28;20957;-50
2022/08/26 03:19:48;;;;;;;15.37;13.80;;;;;;;19.01;100.00;101529.50;5034271;28;20467;-49
2022/08/26 03:22:24;;;;;;;14.13;12.90;;;;;;;18.99;100.00;101516.25;5034406;28;20451;-52
2022/08/26 03:24:53;;;;;;;16.47;14.70;;;;;;;18.99;100.00;101518.94;5034396;28;20456;-49
2022/08/26 03:27:21;;;;;;;15.27;13.57;;;;;;;18.99;100.00;101526.22;5034625;28;20430;-51
2022/08/26 03:32:39;;;;;;;19.33;15.20;;;;;;;18.94;100.00;101516.09;5034216;28;20451;-48
2022/08/26 03:35:08;;;;;;;15.63;14.13;;;;;;;18.94;100.00;101517.97;5034344;28;20984;-54
2022/08/26 03:37:36;;;;;;;16.77;14.63;;;;;;;18.93;100.00;101516.34;5034181;28;20442;-48
2022/08/26 03:40:07;;;;;;;17.63;15.80;;;;;;;18.91;100.00;101516.56;5033921;28;20475;-48
2022/08/26 03:42:35;;;;;;;19.00;15.10;;;;;;;18.91;100.00;101513.03;5034008;28;20451;-49
2022/08/26 03:45:04;;;;;;;17.73;15.50;;;;;;;18.91;100.00;101515.75;5034212;28;20809;-50
2022/08/26 03:47:32;;;;;;;17.10;14.27;;;;;;;18.90;100.00;101501.44;5033119;28;20436;-51
2022/08/26 03:50:02;;;;;;;18.33;16.43;;;;;;;18.91;100.00;101503.06;5033334;28;20470;-48
2022/08/26 03:52:30;;;;;;;21.20;15.70;;;;;;;18.90;100.00;101498.72;5033699;28;20448;-47
2022/08/26 03:54:58;;;;;;;15.90;14.40;;;;;;;18.90;100.00;101503.31;5034076;28;20436;-50
2022/08/26 03:57:27;;;;;;;17.00;15.30;;;;;;;18.90;100.00;101503.31;5033923;28;20436;-50
2022/08/26 03:59:54;;;;;;;17.20;15.47;;;;;;;18.89;100.00;101502.47;5033627;28;20551;-47
2022/08/26 04:02:22;;;;;;;20.70;15.90;;;;;;;18.89;100.00;101502.47;5033289;28;20471;-52
2022/08/26 04:04:50;;;;;;;20.80;15.53;;;;;;;18.89;100.00;101499.78;5033669;28;20949;-53
2022/08/26 04:07:19;;;;;;;20.50;18.33;;;;;;;18.90;100.00;101495.19;5033909;28;20435;-52
2022/08/26 04:09:47;;;;;;;20.13;18.07;;;;;;;18.89;100.00;101491.66;5033240;28;20467;-47
2022/08/26 04:12:14;;;;;;;19.80;17.90;;;;;;;18.91;100.00;101491.41;5033244;28;20451;-48
2022/08/26 04:14:42;;;;;;;19.40;17.60;;;;;;;18.89;100.00;101488.13;5033556;28;20443;-47
2022/08/26 04:17:11;;;;;;;18.80;17.00;;;;;;;18.89;100.00;101488.97;5033418;28;20996;-51
2022/08/26 04:19:39;;;;;;;18.37;16.53;;;;;;;18.90;100.00;101493.31;5033232;28;20460;-48
2022/08/26 04:22:07;;;;;;;20.80;17.80;;;;;;;18.92;100.00;101490.38;5033267;28;20818;-48
2022/08/26 04:24:38;;;;;;;19.43;17.30;;;;;;;18.93;100.00;101492.84;5033530;28;20443;-46
2022/08/26 04:27:06;;;;;;;23.00;17.33;;;;;;;18.95;100.00;101492.59;5033344;28;20443;-47
2022/08/26 04:29:34;;;;;;;19.50;17.50;;;;;;;18.96;100.00;101486.97;5032664;28;20517;-46
2022/08/26 04:32:02;;;;;;;25.57;18.10;;;;;;;19.00;100.00;101490.84;5033287;28;20483;-56
2022/08/26 04:34:31;;;;;;;19.83;17.57;;;;;;;19.03;100.00;101489.53;5033189;28;20937;-48
2022/08/26 04:37:00;;;;;;;22.30;15.30;;;;;;;19.07;100.00;101488.88;5033369;28;20436;-51
2022/08/26 04:39:28;;;;;;;18.13;16.07;;;;;;;19.11;100.00;101498.16;5032566;28;20980;-48
2022/08/26 04:41:57;;;;;;;19.10;15.40;;;;;;;19.14;100.00;101488.75;5032765;28;20452;-49
2022/08/26 04:44:27;;;;;;;19.37;17.47;;;;;;;19.20;100.00;101485.09;5033104;28;20436;-46
2022/08/26 04:46:56;;;;;;;18.10;16.40;;;;;;;19.24;100.00;101486.25;5033251;28;20435;-49
2022/08/26 04:49:24;;;;;;;19.03;17.00;;;;;;;19.33;100.00;101492.97;5032534;28;20479;-50
2022/08/26 04:51:54;;;;;;;23.97;18.13;;;;;;;19.38;100.00;101494.97;5032796;28;20478;-48
2022/08/26 04:54:22;;;;;;;17.67;15.77;;;;;;;19.48;100.00;101484.41;5032327;28;20979;-47
2022/08/26 04:56:51;;;;;;;18.90;16.90;;;;;;;19.60;100.00;101482.50;5032917;28;20440;-49
2022/08/26 04:59:20;;;;;;;22.10;16.70;;;;;;;19.76;100.00;101482.59;5032362;28;20499;-47
2022/08/26 05:01:50;;;;;;;19.30;16.80;;;;;;;19.86;100.00;101488.19;5032570;28;20831;-49
2022/08/26 05:04:19;;;;;;;20.10;17.20;;;;;;;19.98;100.00;101490.88;5032487;28;20439;-50
2022/08/26 05:06:49;;;;;;;19.83;16.43;;;;;;;20.18;100.00;101491.28;5032629;28;20432;-49
2022/08/26 05:09:18;;;;;;;22.97;16.10;;;;;;;20.42;100.00;101486.63;5031872;28;20494;-49
2022/08/26 05:11:47;;;;;;;17.73;15.90;;;;;;;20.77;100.00;101480.97;5032546;28;20813;-51
2022/08/26 05:14:21;;;;;;;14.73;13.40;;;;;;;20.83;100.00;101480.84;5032427;28;20522;-49
2022/08/26 05:16:49;;;;;;;16.60;14.90;;;;;;;20.92;100.00;101481.25;5032555;28;20431;-48
2022/08/26 05:19:17;;;;;;;17.07;15.40;;;;;;;20.98;100.00;101482.97;5032031;28;20460;-47
2022/08/26 05:21:47;;;;;;;15.77;14.23;;;;;;;21.04;100.00;101486.56;5032358;28;20840;-53
2022/08/26 05:24:15;;;;;;;17.47;15.00;;;;;;;21.15;100.00;101488.38;5032138;28;20457;-50
2022/08/26 05:26:43;;;;;;;17.67;15.13;;;;;;;21.19;100.00;101484.94;5032355;28;20423;-47
2022/08/26 05:29:11;;;;;;;14.13;12.83;;;;;;;21.32;100.00;101481.06;5031968;28;20471;-47
2022/08/26 05:31:40;;;;;;;15.53;13.90;;;;;;;21.60;100.00;101488.22;5032059;28;20475;-52
2022/08/26 05:34:08;;;;;;;13.83;12.50;;;;;;;21.72;100.00;101488.94;5031791;28;20442;-46
2022/08/26 05:36:36;;;;;;;13.70;12.40;;;;;;;21.88;100.00;101488.91;5032277;28;20434;-49
2022/08/26 05:39:06;;;;;;;14.53;13.00;;;;;;;21.89;100.00;101487.81;5031749;28;21139;-48
2022/08/26 05:41:36;;;;;;;17.03;14.03;;;;;;;21.88;100.00;101488.91;5032082;28;20448;-48
2022/08/26 05:44:07;;;;;;;16.83;14.40;;;;;;;22.02;100.00;101489.34;5031753;28;20461;-48
2022/08/26 05:46:36;;;;;;;14.30;12.97;;;;;;;22.21;100.00;101489.81;5031839;28;20467;-49
2022/08/26 05:49:06;;;;;;;15.80;12.73;;;;;;;22.57;100.00;101494.53;5031704;28;20462;-47
2022/08/26 05:51:40;;;;;;;14.10;12.70;;;;;;;23.09;100.00;101492.00;5031761;28;20475;-47
2022/08/26 05:54:07;;;;;;;19.13;12.63;;;;;;;23.59;100.00;101489.66;5031511;28;20937;-51
2022/08/26 05:56:37;;;;;;;13.90;12.50;;;;;;;24.20;100.00;101487.97;5031877;28;20431;-52
2022/08/26 05:59:05;;;;;;;12.40;11.37;;;;;;;24.72;100.00;101495.16;5031295;28;20462;-48
2022/08/26 06:01:41;;;;;;;12.03;11.00;;;;;;;25.26;100.00;101481.78;5031564;28;20482;-50
2022/08/26 06:04:11;;;;;;;13.77;11.40;;;;;;;25.64;95.52;101486.59;5031484;28;21014;-51
2022/08/26 06:06:40;;;;;;;10.53;9.63;;;;;;;25.89;87.45;101493.91;5031781;28;20431;-51
2022/08/26 06:09:10;;;;;;;11.57;10.50;;;;;;;26.18;87.31;101488.56;5032187;28;20459;-50
2022/08/26 06:11:39;;;;;;;14.83;10.50;;;;;;;26.62;82.60;101483.91;5037870;28;20483;-47
2022/08/26 06:14:07;;;;;;;11.13;10.13;;;;;;;26.86;80.51;101489.47;5038229;28;20442;-49
2022/08/26 06:16:37;;;;;;;11.63;10.63;;;;;;;26.92;77.21;101486.41;5038304;28;20446;-49
2022/08/26 06:19:06;;;;;;;12.23;10.87;;;;;;;27.12;77.61;101490.06;5037944;28;20462;-49
2022/08/26 06:21:41;;;;;;;12.43;11.20;;;;;;;27.10;74.71;101487.63;5038000;28;20443;-49
2022/08/26 06:27:01;;;;;;;12.40;11.17;;;;;;;27.45;76.59;101486.44;5038319;28;20427;-49
2022/08/26 06:29:32;;;;;;;13.50;10.70;;;;;;;27.70;74.86;101486.16;5037953;28;20475;-47
2022/08/26 06:32:01;;;;;;;11.80;10.70;;;;;;;27.68;74.35;101482.09;5038072;28;20479;-51
2022/08/26 06:34:30;;;;;;;12.57;11.47;;;;;;;27.79;69.57;101484.41;5037918;28;20917;-47
2022/08/26 06:37:02;;;;;;;17.20;10.47;;;;;;;27.75;73.29;101482.53;5038534;28;20805;-49
2022/08/26 06:39:30;;;;;;;16.97;11.40;;;;;;;27.77;70.42;101485.81;5037667;28;20471;-47
2022/08/26 06:41:58;;;;;;;19.10;11.30;;;;;;;27.88;72.84;101482.66;5038015;28;20482;-49
2022/08/26 06:44:26;;;;;;;13.20;10.97;;;;;;;27.68;70.67;101488.38;5038130;28;20801;-51
2022/08/26 06:46:54;;;;;;;13.53;12.00;;;;;;;27.49;71.38;101479.28;5037947;28;20432;-48
2022/08/26 06:49:22;;;;;;;13.37;12.03;;;;;;;27.41;68.57;101486.22;5037664;28;21163;-49
2022/08/26 06:51:56;;;;;;;15.70;12.40;;;;;;;27.26;72.39;101480.88;5037824;28;20479;-46
2022/08/26 06:54:26;;;;;;;21.57;12.30;;;;;;;27.04;72.82;101482.47;5037817;28;20968;-51
2022/08/26 06:56:55;;;;;;;14.07;12.67;;;;;;;26.59;72.59;101479.00;5038075;28;20427;-49
2022/08/26 06:59:23;;;;;;;14.40;12.97;;;;;;;26.41;77.29;101479.66;5037507;28;20546;-49
2022/08/26 07:01:51;;;;;;;16.33;12.53;;;;;;;26.44;78.76;101479.09;5037780;28;20463;-52
2022/08/26 07:04:19;;;;;;;16.90;14.77;;;;;;;26.44;78.07;101476.38;5037753;28;20789;-50
2022/08/26 07:06:51;;;;;;;16.43;13.23;;;;;;;26.69;74.11;101478.94;5037669;28;20431;-50
2022/08/26 07:09:20;;;;;;;15.97;14.50;;;;;;;26.94;74.90;101480.66;5037353;28;20542;-56
2022/08/26 07:11:51;;;;;;;16.77;13.83;;;;;;;26.42;76.05;101486.78;5037711;28;20479;-48
2022/08/26 07:14:18;;;;;;;17.00;14.77;;;;;;;25.99;77.35;101490.28;5037516;28;20925;-47
2022/08/26 07:16:49;;;;;;;15.93;14.37;;;;;;;26.06;79.32;101494.34;5038012;28;20474;-54
2022/08/26 07:19:17;;;;;;;15.77;14.27;;;;;;;26.10;79.77;101486.41;5037484;28;20546;-53
2022/08/26 07:21:58;;;;;;;15.40;13.87;;;;;;;26.05;78.90;101487.25;5035450;28;20453;-53
2022/08/26 07:24:25;;;;;;;14.60;13.20;;;;;;;26.03;80.62;101483.16;5034333;28;20442;-54
2022/08/26 07:27:00;;;;;;;16.53;14.83;;;;;;;25.70;81.41;101490.97;5034377;28;20432;-53
2022/08/26 07:29:28;;;;;;;16.50;14.90;;;;;;;25.73;82.81;101474.00;5034214;28;20474;-50
2022/08/26 07:31:56;;;;;;;15.87;14.37;;;;;;;25.78;81.61;101484.91;5034467;28;20554;-50
2022/08/26 07:34:24;;;;;;;16.30;14.70;;;;;;;26.00;82.08;101492.75;5034273;28;20451;-51
2022/08/26 07:36:53;;;;;;;17.50;15.63;;;;;;;26.10;81.00;101489.16;5034253;28;20464;-53
2022/08/26 07:39:22;;;;;;;16.13;14.30;;;;;;;25.94;81.63;101490.31;5033935;28;20469;-51
2022/08/26 07:41:51;;;;;;;15.50;14.03;;;;;;;25.96;81.44;101488.09;5034420;28;20505;-52
2022/08/26 07:44:20;;;;;;;15.63;14.07;;;;;;;25.84;81.29;101481.06;5034085;28;20435;-55
2022/08/26 07:46:48;;;;;;;15.40;14.00;;;;;;;25.76;82.40;101486.28;5034214;28;20432;-51
2022/08/26 07:49:20;;;;;;;15.27;13.83;;;;;;;25.60;82.92;101485.53;5033709;28;20474;-55
2022/08/26 07:51:48;;;;;;;16.80;15.00;;;;;;;25.54;83.33;101480.34;5033580;28;20567;-53
2022/08/26 07:54:16;;;;;;;18.30;14.77;;;;;;;25.56;85.02;101489.91;5033630;28;20440;-52
2022/08/26 07:56:47;;;;;;;16.90;14.50;;;;;;;25.74;85.77;101481.13;5033936;28;20440;-55
2022/08/26 07:59:16;;;;;;;21.33;16.23;;;;;;;25.51;84.83;101478.16;5033334;28;20462;-55
2022/08/26 08:01:45;;;;;;;20.43;15.80;;;;;;;25.42;86.79;101477.09;5033716;28;20460;-54
2022/08/26 08:04:14;;;;;;;18.20;15.47;;;;;;;25.56;87.60;101487.19;5033657;28;20517;-51
2022/08/26 08:06:42;;;;;;;17.90;14.60;;;;;;;25.58;86.01;101474.06;5034017;28;20443;-52
2022/08/26 08:09:11;;;;;;;16.43;14.93;;;;;;;25.65;84.97;101471.88;5033204;28;20554;-53
2022/08/26 08:11:40;;;;;;;16.13;14.63;;;;;;;25.77;86.20;101480.56;5033433;28;20479;-53
2022/08/26 08:14:08;;;;;;;16.23;14.57;;;;;;;25.83;86.40;101475.88;5033587;28;20435;-53
2022/08/26 08:16:39;;;;;;;18.10;16.30;;;;;;;25.96;85.06;101477.16;5033613;28;20933;-55
2022/08/26 08:19:13;;;;;;;17.40;13.97;;;;;;;26.08;83.68;101478.47;5033366;28;20467;-54
2022/08/26 08:21:41;;;;;;;17.40;15.60;;;;;;;26.15;82.40;101479.03;5033671;28;20482;-52
2022/08/26 08:24:10;;;;;;;16.07;14.60;;;;;;;26.14;82.81;101480.09;5033610;28;20444;-49
2022/08/26 08:26:38;;;;;;;17.33;15.53;;;;;;;26.23;82.29;101485.81;5033501;28;20534;-53
2022/08/26 08:29:07;;;;;;;16.57;15.00;;;;;;;26.17;82.49;101481.47;5032765;28;20463;-53
2022/08/26 08:31:36;;;;;;;16.90;15.10;;;;;;;26.17;81.80;101474.09;5033481;28;20515;-52
2022/08/26 08:34:25;;;;;;;17.63;15.70;;;;;;;26.22;82.10;101481.44;5032837;28;20454;-53
2022/08/26 08:36:53;;;;;;;17.17;15.50;;;;;;;26.13;82.06;101475.75;5033345;28;20427;-53
2022/08/26 08:39:21;;;;;;;17.27;15.87;;;;;;;26.20;82.54;101476.25;5032657;28;20463;-52
2022/08/26 08:42:11;;;;;;;18.37;14.40;;;;;;;26.27;82.25;101478.69;5033246;28;20447;-52
2022/08/26 08:44:44;;;;;;;15.87;14.50;;;;;;;26.30;82.05;101473.47;5033285;28;20440;-53
2022/08/26 08:47:31;;;;;;;16.23;14.80;;;;;;;26.19;81.27;101484.75;5033022;28;20428;-52
2022/08/26 08:50:11;;;;;;;16.87;15.20;;;;;;;26.19;84.09;101484.75;5032364;28;20463;-53
2022/08/26 08:52:43;;;;;;;19.00;17.40;;;;;;;26.32;82.45;101489.56;5032384;28;20977;-51
2022/08/26 08:55:15;;;;;;;18.63;16.70;;;;;;;26.07;83.07;101496.00;5033052;28;20435;-54
2022/08/26 08:57:57;;;;;;;17.60;15.80;;;;;;;26.35;82.53;101495.28;5033010;28;20439;-55
2022/08/26 09:00:38;;;;;;;18.07;16.53;;;;;;;26.25;83.62;101484.41;5032202;28;20554;-56
2022/08/26 09:03:16;;;;;;;18.33;16.57;;;;;;;26.28;81.79;101494.00;5032431;28;20451;-50
2022/08/26 09:05:50;;;;;;;17.80;16.17;;;;;;;26.19;81.00;101492.94;5032762;28;20518;-55
2022/08/26 09:08:22;;;;;;;16.67;15.20;;;;;;;26.29;80.63;101487.41;5032676;28;20431;-55
2022/08/26 09:10:53;;;;;;;18.30;16.60;;;;;;;26.34;81.62;101479.97;5032017;28;20459;-54
2022/08/26 09:13:23;;;;;;;18.63;16.90;;;;;;;26.34;81.02;101493.66;5032219;28;20471;-51
2022/08/26 09:16:02;;;;;;;20.73;18.63;;;;;;;26.37;81.85;101500.50;5032666;28;20435;-55
2022/08/26 09:18:48;;;;;;;18.83;17.13;;;;;;;26.48;81.09;101482.91;5032458;28;20431;-53
2022/08/26 09:21:19;;;;;;;18.40;16.90;;;;;;;26.20;80.52;101489.91;5031944;28;20852;-51
2022/08/26 09:23:51;;;;;;;21.27;19.03;;;;;;;25.93;81.98;101489.47;5032143;28;20428;-53
2022/08/26 09:26:21;;;;;;;23.90;18.10;;;;;;;26.02;83.13;101490.53;5032140;28;20983;-54
2022/08/26 09:28:57;;;;;;;19.03;17.40;;;;;;;25.97;82.84;101485.09;5032077;28;20432;-52
2022/08/26 09:31:27;;;;;;;19.70;17.90;;;;;;;25.99;83.09;101474.69;5032668;28;21012;-55
2022/08/26 09:34:08;;;;;;;20.77;18.87;;;;;;;25.96;83.36;101479.91;5032221;28;20732;-54
2022/08/26 09:36:39;;;;;;;18.40;16.77;;;;;;;25.85;83.22;101470.94;5032331;28;20455;-48
2022/08/26 09:39:25;;;;;;;24.00;18.63;;;;;;;25.57;85.18;101480.63;5031898;28;20459;-54
2022/08/26 09:42:09;;;;;;;20.50;18.40;;;;;;;25.38;85.83;101476.00;5031883;28;20448;-48
2022/08/26 09:44:52;;;;;;;23.60;18.17;;;;;;;25.28;86.76;101471.38;5031381;28;20435;-51
2022/08/26 09:47:23;;;;;;;20.73;18.70;;;;;;;25.10;88.92;101480.97;5032310;28;20444;-49
2022/08/26 09:49:59;;;;;;;25.53;19.13;;;;;;;25.09;90.38;101484.78;5031654;28;20501;-52
2022/08/26 09:52:27;;;;;;;24.20;20.63;;;;;;;25.14;90.85;101484.81;5031535;28;20564;-50
2022/08/26 09:55:03;;;;;;;20.70;18.67;;;;;;;25.09;90.65;101482.06;5031816;28;20431;-51
2022/08/26 09:57:33;;;;;;;23.87;19.27;;;;;;;25.18;91.67;101477.69;5032041;28;20515;-55
2022/08/26 10:00:02;;;;;;;21.90;18.97;;;;;;;25.27;90.90;101476.03;5031515;28;20977;-54
2022/08/26 10:02:38;;;;;;;22.27;19.93;;;;;;;25.26;90.37;101470.84;5031389;28;20853;-54
2022/08/26 10:05:10;;;;;;;20.20;18.30;;;;;;;25.44;89.96;101473.00;5031778;28;20457;-50
2022/08/26 10:07:42;;;;;;;20.27;18.37;;;;;;;25.38;89.27;101474.09;5031804;28;20431;-54
2022/08/26 10:10:15;;;;;;;25.53;20.20;;;;;;;25.50;88.87;101474.66;5031312;28;20467;-50
2022/08/26 10:12:52;;;;;;;19.27;17.37;;;;;;;25.64;88.64;101472.94;5031550;28;20874;-51
2022/08/26 10:15:21;;;;;;;19.87;18.03;;;;;;;25.69;87.69;101474.84;5031578;28;20793;-51
2022/08/26 10:17:55;;;;;;;18.77;17.13;;;;;;;25.88;86.14;101466.84;5031611;28;20436;-49
2022/08/26 10:20:26;;;;;;;19.50;17.50;;;;;;;25.73;85.22;101468.53;5031261;28;21023;-55
2022/08/26 10:23:01;;;;;;;17.37;15.93;;;;;;;25.74;86.53;101462.00;5031662;28;20447;-47
2022/08/26 10:25:33;;;;;;;18.23;16.67;;;;;;;25.78;85.54;101457.59;5031697;28;20526;-49
2022/08/26 10:28:09;;;;;;;16.97;15.40;;;;;;;25.95;85.17;101459.97;5031517;28;20424;-48
2022/08/26 10:30:43;;;;;;;16.93;15.50;;;;;;;25.95;84.52;101459.97;5031341;28;20490;-50
2022/08/26 10:33:14;;;;;;;16.47;14.73;;;;;;;26.15;84.71;101457.16;5031116;28;20486;-50
2022/08/26 10:35:50;;;;;;;16.50;15.10;;;;;;;26.14;82.53;101474.63;5031542;28;20459;-50
2022/08/26 10:38:28;;;;;;;16.87;15.10;;;;;;;26.25;82.81;101459.81;5031594;28;20438;-50
2022/08/26 10:41:02;;;;;;;18.23;16.50;;;;;;;26.30;83.08;101458.97;5030977;28;20517;-52
2022/08/26 10:43:42;;;;;;;17.70;16.03;;;;;;;26.33;83.63;101456.50;5031306;28;20428;-50
2022/08/26 10:46:15;;;;;;;16.83;15.20;;;;;;;26.42;81.65;101464.09;5031560;28;20430;-49
2022/08/26 10:48:47;;;;;;;18.80;17.00;;;;;;;26.29;80.71;101465.53;5030832;28;21061;-50
2022/08/26 10:51:21;;;;;;;16.90;14.90;;;;;;;26.51;81.46;101467.84;5031508;28;20448;-50
2022/08/26 10:53:55;;;;;;;16.97;15.43;;;;;;;26.62;81.12;101467.47;5031061;28;20466;-55
2022/08/26 10:56:35;;;;;;;16.77;15.17;;;;;;;26.57;80.74;101458.50;5033122;28;20438;-49
2022/08/26 10:59:13;;;;;;;16.07;14.67;;;;;;;26.88;81.09;101452.50;5034540;28;20460;-53
2022/08/26 11:01:48;;;;;;;16.57;14.97;;;;;;;26.97;80.33;101452.69;5034723;28;20463;-49
2022/08/26 11:04:33;;;;;;;17.33;15.80;;;;;;;27.04;79.80;101452.34;5034873;28;20431;-55
2022/08/26 11:07:40;;;;;;;16.27;14.97;;;;;;;26.92;78.33;101453.56;5035388;28;20427;-54
2022/08/26 11:10:31;;;;;;;17.80;16.13;;;;;;;26.64;79.58;101456.25;5034446;28;20857;-52
2022/08/26 11:13:02;;;;;;;19.07;17.47;;;;;;;26.40;80.71;101446.03;5034232;28;20506;-54
2022/08/26 11:16:09;;;;;;;19.87;17.37;;;;;;;26.31;82.75;101447.72;5032169;28;20442;-51
2022/08/26 11:18:47;;;;;;;21.50;19.50;;;;;;;26.18;83.67;101436.63;5022405;28;20468;-50
2022/08/26 11:21:48;;;;;;;19.27;17.27;;;;;;;26.23;83.51;101447.53;5034263;28;20482;-50
2022/08/26 11:25:01;;;;;;;18.60;16.90;;;;;;;26.24;84.01;101444.53;5034425;28;20737;-52
2022/08/26 11:28:04;;;;;;;17.40;15.90;;;;;;;26.48;83.75;101438.31;5006232;28;20435;-46
2022/08/26 11:30:43;;;;;;;21.23;18.17;;;;;;;26.51;82.71;101437.75;5027700;28;20860;-52